createdAt,value
2023-04-02T00:01:33.057Z,2.35
2023-04-02T00:04:39.311Z,3.63
2023-04-02T00:07:45.337Z,2.08
2023-04-02T00:10:44.626Z,2.53
2023-04-02T00:13:13.195Z,3.05
2023-04-02T00:19:40.742Z,3.53
2023-04-02T00:22:20.783Z,2.58
2023-04-02T00:24:53.482Z,2.15
2023-04-02T00:27:28.484Z,3.30
2023-04-02T00:29:57.424Z,2.45
2023-04-02T00:32:40.856Z,1.40
2023-04-02T00:35:49.442Z,2.15
2023-04-02T00:38:32.846Z,2.08
2023-04-02T00:41:04.614Z,2.28
2023-04-02T00:43:36.478Z,3.20
2023-04-02T00:46:16.344Z,2.78
2023-04-02T00:48:49.922Z,3.05
2023-04-02T00:51:30.945Z,2.60
2023-04-02T00:54:36.055Z,2.88
2023-04-02T00:57:32.382Z,2.72
2023-04-02T01:00:22.638Z,2.28
2023-04-02T01:03:37.786Z,2.92
2023-04-02T01:06:14.920Z,2.97
2023-04-02T01:09:19.054Z,1.83
2023-04-02T01:12:18.374Z,1.55
2023-04-02T01:15:21.221Z,2.97
2023-04-02T01:18:11.932Z,4.70
2023-04-02T01:21:04.667Z,3.08
2023-04-02T01:24:01.676Z,3.33
2023-04-02T01:30:21.968Z,2.95
2023-04-02T01:33:01.932Z,2.55
2023-04-02T01:35:37.574Z,2.63
2023-04-02T01:41:54.903Z,2.55
2023-04-02T01:44:54.508Z,3.22
2023-04-02T01:47:36.848Z,2.97
2023-04-02T01:50:39.525Z,2.20
2023-04-02T01:53:14.470Z,3.10
2023-04-02T01:56:11.307Z,2.25
2023-04-02T01:58:44.864Z,3.05
2023-04-02T02:01:28.632Z,3.75
2023-04-02T02:10:02.708Z,3.35
2023-04-02T02:12:38.016Z,3.97
2023-04-02T02:15:29.642Z,4.25
2023-04-02T02:24:53.239Z,2.03
2023-04-02T02:27:38.197Z,3.97
2023-04-02T02:30:11.961Z,2.40
2023-04-02T02:33:17.358Z,3.33
2023-04-02T02:39:08.706Z,3.17
2023-04-02T02:42:02.318Z,2.60
2023-04-02T02:44:37.495Z,2.20
2023-04-02T02:47:21.175Z,1.90
2023-04-02T02:52:59.835Z,2.08
2023-04-02T02:53:14.694Z,2.28
2023-04-02T02:55:46.336Z,3.15
2023-04-02T02:58:26.657Z,3.33
2023-04-02T03:03:43.531Z,3.38
2023-04-02T03:06:21.720Z,4.13
2023-04-02T03:09:17.846Z,3.63
2023-04-02T03:12:11.540Z,2.63
2023-04-02T03:15:18.156Z,2.90
2023-04-02T03:17:53.731Z,2.90
2023-04-02T03:24:42.117Z,1.92
2023-04-02T03:27:31.530Z,1.75
2023-04-02T03:30:39.270Z,1.83
2023-04-02T03:33:50.341Z,2.45
2023-04-02T03:36:21.814Z,1.65
2023-04-02T03:39:04.215Z,2.72
2023-04-02T03:42:02.825Z,1.92
2023-04-02T03:44:49.556Z,2.35
2023-04-02T03:47:25.212Z,3.73
2023-04-02T03:50:04.709Z,1.42
2023-04-02T03:52:34.452Z,1.65
2023-04-02T03:55:10.286Z,1.75
2023-04-02T03:57:47.050Z,0.68
2023-04-02T04:00:37.782Z,0.65
2023-04-02T04:03:31.947Z,2.10
2023-04-02T04:06:21.491Z,1.45
2023-04-02T04:09:11.948Z,2.00
2023-04-02T04:11:55.156Z,1.35
2023-04-02T04:14:31.559Z,1.02
2023-04-02T04:17:04.536Z,1.73
2023-04-02T04:19:42.121Z,1.02
2023-04-02T04:22:30.638Z,2.05
2023-04-02T04:25:09.736Z,1.10
2023-04-02T04:27:54.019Z,2.75
2023-04-02T04:30:29.074Z,1.60
2023-04-02T04:33:11.049Z,1.25
2023-04-02T04:35:40.420Z,2.65
2023-04-02T04:38:10.310Z,1.08
2023-04-02T04:40:45.361Z,2.97
2023-04-02T04:43:19.400Z,1.17
2023-04-02T04:45:53.118Z,2.08
2023-04-02T04:48:27.553Z,0.85
2023-04-02T04:50:59.687Z,1.33
2023-04-02T04:53:28.892Z,2.75
2023-04-02T04:56:16.096Z,0.70
2023-04-02T04:59:02.428Z,0.85
2023-04-02T05:01:41.333Z,4.47
2023-04-02T05:04:37.074Z,0.90
2023-04-02T05:07:21.884Z,1.17
2023-04-02T05:10:08.645Z,0.45
2023-04-02T05:12:51.997Z,0.90
2023-04-02T05:15:39.734Z,0.75
2023-04-02T05:18:39.600Z,1.33
2023-04-02T05:21:16.832Z,1.58
2023-04-02T05:23:55.669Z,0.73
2023-04-02T05:26:29.747Z,1.20
2023-04-02T05:29:14.427Z,1.05
2023-04-02T05:31:55.726Z,1.00
2023-04-02T05:34:29.635Z,1.05
2023-04-02T05:36:56.452Z,1.17
2023-04-02T05:39:25.534Z,0.85
2023-04-02T05:42:03.826Z,1.00
2023-04-02T05:44:43.331Z,1.13
2023-04-02T05:47:21.304Z,0.70
2023-04-02T05:50:12.097Z,1.30
2023-04-02T05:53:22.427Z,2.13
2023-04-02T05:55:58.353Z,1.15
2023-04-02T05:58:36.394Z,2.15
2023-04-02T06:01:22.316Z,0.57
2023-04-02T06:03:54.904Z,2.10
2023-04-02T06:06:46.416Z,1.75
2023-04-02T06:09:25.397Z,0.80
2023-04-02T06:12:10.563Z,4.32
2023-04-02T06:14:37.725Z,5.63
2023-04-02T06:17:06.757Z,7.13
2023-04-02T06:19:37.606Z,1.88
2023-04-02T06:22:25.514Z,2.50
2023-04-02T06:25:18.366Z,1.73
2023-04-02T06:27:47.215Z,2.28
2023-04-02T06:30:19.790Z,2.03
2023-04-02T06:32:46.988Z,1.67
2023-04-02T06:35:14.970Z,3.28
2023-04-02T06:37:48.915Z,1.85
2023-04-02T06:40:53.398Z,2.45
2023-04-02T06:43:44.947Z,5.07
2023-04-02T06:46:53.558Z,1.65
2023-04-02T06:49:37.007Z,1.17
2023-04-02T06:52:11.512Z,0.95
2023-04-02T06:54:38.303Z,1.45
2023-04-02T06:57:07.198Z,2.70
2023-04-02T06:59:40.486Z,1.13
2023-04-02T07:02:25.512Z,0.93
2023-04-02T07:04:52.847Z,1.17
2023-04-02T07:07:20.042Z,0.95
2023-04-02T07:09:47.079Z,3.95
2023-04-02T07:12:14.879Z,4.32
2023-04-02T07:17:18.829Z,1.83
2023-04-02T07:19:49.954Z,2.30
2023-04-02T07:22:26.216Z,2.20
2023-04-02T07:24:53.875Z,1.02
2023-04-02T07:27:21.233Z,0.63
2023-04-02T07:29:51.151Z,1.33
2023-04-02T07:32:20.185Z,1.73
2023-04-02T07:34:47.668Z,1.20
2023-04-02T07:37:17.919Z,1.23
2023-04-02T07:39:49.663Z,1.77
2023-04-02T07:42:23.268Z,2.22
2023-04-02T07:44:51.411Z,3.35
2023-04-02T07:47:42.264Z,4.43
2023-04-02T07:50:11.179Z,3.25
2023-04-02T07:52:45.811Z,7.57
2023-04-02T07:55:50.004Z,7.07
2023-04-02T07:58:19.915Z,3.92
2023-04-02T08:00:51.580Z,2.28
2023-04-02T08:03:25.303Z,2.03
2023-04-02T08:05:58.701Z,1.15
2023-04-02T08:08:26.459Z,5.53
2023-04-02T08:11:03.338Z,0.60
2023-04-02T08:13:34.196Z,0.85
2023-04-02T08:16:31.664Z,2.45
2023-04-02T08:19:11.658Z,1.10
2023-04-02T08:24:35.064Z,1.10
2023-04-02T08:27:02.358Z,0.57
2023-04-02T08:29:32.754Z,2.05
2023-04-02T08:32:01.024Z,0.95
2023-04-02T08:34:28.857Z,0.65
2023-04-02T08:39:26.276Z,1.05
2023-04-02T08:42:25.840Z,0.68
2023-04-02T08:45:24.254Z,2.55
2023-04-02T08:47:56.313Z,1.77
2023-04-02T08:50:42.976Z,0.43
2023-04-02T08:53:42.321Z,0.93
2023-04-02T08:56:45.268Z,2.10
2023-04-02T08:59:32.924Z,0.93
2023-04-02T09:02:21.857Z,0.73
2023-04-02T09:04:49.123Z,1.23
2023-04-02T09:07:42.968Z,2.00
2023-04-02T09:10:23.875Z,0.20
2023-04-02T09:13:17.356Z,0.82
2023-04-02T09:15:45.174Z,2.63
2023-04-02T09:18:22.986Z,1.65
2023-04-02T09:20:50.309Z,3.22
2023-04-02T09:23:26.166Z,3.15
2023-04-02T09:26:04.292Z,2.67
2023-04-02T09:28:32.767Z,1.83
2023-04-02T09:31:21.937Z,0.38
2023-04-02T09:33:51.804Z,0.35
2023-04-02T09:36:38.898Z,1.05
2023-04-02T09:39:17.897Z,0.40
2023-04-02T09:41:50.296Z,1.55
2023-04-02T09:44:31.002Z,1.48
2023-04-02T09:47:05.130Z,0.90
2023-04-02T09:49:37.457Z,0.30
2023-04-02T09:52:36.065Z,1.52
2023-04-02T09:55:15.651Z,0.22
2023-04-02T09:57:43.915Z,3.58
2023-04-02T10:03:23.652Z,0.22
2023-04-02T10:06:15.891Z,1.67
2023-04-02T10:08:47.980Z,1.52
2023-04-02T10:11:20.224Z,0.32
2023-04-02T10:14:00.793Z,1.00
2023-04-02T10:16:39.783Z,0.40
2023-04-02T10:19:15.281Z,0.30
2023-04-02T10:21:49.238Z,0.28
2023-04-02T10:24:18.735Z,1.95
2023-04-02T10:27:26.297Z,0.57
2023-04-02T10:30:02.785Z,0.63
2023-04-02T10:32:41.762Z,0.10
2023-04-02T10:35:09.071Z,0.43
2023-04-02T10:37:51.308Z,0.45
2023-04-02T10:40:21.115Z,0.10
2023-04-02T10:43:00.179Z,0.75
2023-04-02T10:46:00.791Z,0.73
2023-04-02T10:49:26.504Z,0.40
2023-04-02T10:52:33.544Z,0.60
2023-04-02T10:57:36.961Z,1.00
2023-04-02T11:00:31.726Z,0.40
2023-04-02T11:03:20.613Z,0.75
2023-04-02T11:05:57.124Z,0.40
2023-04-02T11:08:45.794Z,1.47
2023-04-02T11:11:29.092Z,0.65
2023-04-02T11:14:04.334Z,0.40
2023-04-02T11:16:45.007Z,5.57
2023-04-02T11:19:37.245Z,0.95
2023-04-02T11:22:20.678Z,0.28
2023-04-02T11:24:54.872Z,1.33
2023-04-02T11:27:36.426Z,0.93
2023-04-02T11:30:07.064Z,0.17
2023-04-02T11:32:52.777Z,1.23
2023-04-02T11:35:36.314Z,0.10
2023-04-02T11:38:27.414Z,0.90
2023-04-02T11:40:58.729Z,0.75
2023-04-02T11:43:35.668Z,0.20
2023-04-02T11:46:30.772Z,0.85
2023-04-02T11:49:36.147Z,3.08
2023-04-02T11:52:12.077Z,2.03
2023-04-02T11:54:41.288Z,0.25
2023-04-02T11:57:24.946Z,0.63
2023-04-02T12:00:45.456Z,0.60
2023-04-02T12:03:45.688Z,0.10
2023-04-02T12:06:13.529Z,0.20
2023-04-02T12:09:08.437Z,0.20
2023-04-02T12:11:38.291Z,1.40
2023-04-02T12:14:42.970Z,0.10
2023-04-02T12:17:34.338Z,0.30
2023-04-02T12:20:05.741Z,2.35
2023-04-02T12:22:34.056Z,0.82
2023-04-02T12:25:19.193Z,1.10
2023-04-02T12:27:49.292Z,0.30
2023-04-02T12:30:23.265Z,1.25
2023-04-02T12:32:52.256Z,0.10
2023-04-02T12:35:40.268Z,0.20
2023-04-02T12:38:19.815Z,2.85
2023-04-02T12:41:01.573Z,0.82
2023-04-02T12:43:33.544Z,6.70
2023-04-02T12:46:04.590Z,1.27
2023-04-02T12:48:36.518Z,4.95
2023-04-02T12:51:07.595Z,1.00
2023-04-02T12:53:44.148Z,0.17
2023-04-02T12:56:21.730Z,3.37
2023-04-02T13:01:35.278Z,5.30
2023-04-02T13:04:13.062Z,2.95
2023-04-02T13:06:47.661Z,6.25
2023-04-02T13:09:40.174Z,0.85
2023-04-02T13:12:07.606Z,0.20
2023-04-02T13:14:34.583Z,1.02
2023-04-02T13:17:01.617Z,1.63
2023-04-02T13:19:33.503Z,0.63
2023-04-02T13:22:03.104Z,1.38
2023-04-02T13:24:32.868Z,0.10
2023-04-02T13:27:02.273Z,1.30
2023-04-02T13:29:36.920Z,0.20
2023-04-02T13:32:12.595Z,0.32
2023-04-02T13:34:39.598Z,0.85
2023-04-02T13:37:06.568Z,0.15
2023-04-02T13:39:33.546Z,0.20
2023-04-02T13:42:03.122Z,3.97
2023-04-02T13:44:32.792Z,0.17
2023-04-02T13:47:01.047Z,0.75
2023-04-02T13:49:29.097Z,1.92
2023-04-02T13:52:08.159Z,0.40
2023-04-02T13:54:54.508Z,4.53
2023-04-02T13:57:21.805Z,1.10
2023-04-02T13:59:48.583Z,1.05
2023-04-02T14:02:22.387Z,0.30
2023-04-02T14:04:53.537Z,0.93
2023-04-02T14:07:45.202Z,1.70
2023-04-02T14:10:36.895Z,0.85
2023-04-02T14:13:06.466Z,0.10
2023-04-02T14:16:07.454Z,2.67
2023-04-02T14:18:39.650Z,1.00
2023-04-02T14:21:29.824Z,0.20
2023-04-02T14:24:35.994Z,1.17
2023-04-02T14:27:08.861Z,0.17
2023-04-02T14:29:48.065Z,0.30
2023-04-02T14:32:31.885Z,1.23
2023-04-02T14:35:24.393Z,0.40
2023-04-02T14:38:12.076Z,0.88
2023-04-02T14:41:04.158Z,0.65
2023-04-02T14:44:05.367Z,0.93
2023-04-02T14:46:36.200Z,0.20
2023-04-02T14:49:39.732Z,0.90
2023-04-02T14:55:06.402Z,0.38
2023-04-02T14:57:45.455Z,0.30
2023-04-02T15:00:34.403Z,1.40
2023-04-02T15:03:47.316Z,0.17
2023-04-02T15:06:40.611Z,0.68
2023-04-02T15:09:27.547Z,1.27
2023-04-02T15:12:00.187Z,1.20
2023-04-02T15:14:47.907Z,1.58
2023-04-02T15:17:14.964Z,2.40
2023-04-02T15:19:42.345Z,2.50
2023-04-02T15:22:11.929Z,1.08
2023-04-02T15:25:10.718Z,2.58
2023-04-02T15:27:58.646Z,4.65
2023-04-02T15:30:29.559Z,3.38
2023-04-02T15:33:21.789Z,0.50
2023-04-02T15:35:57.566Z,1.38
2023-04-02T15:38:31.853Z,2.15
2023-04-02T15:41:11.438Z,0.30
2023-04-02T15:44:03.793Z,0.63
2023-04-02T15:47:04.669Z,1.52
2023-04-02T15:50:01.976Z,25.33
2023-04-02T15:55:39.282Z,31.63
2023-04-02T15:58:06.697Z,84.88
2023-04-02T16:00:59.890Z,121.10
2023-04-02T16:04:20.124Z,113.53
2023-04-02T16:07:12.927Z,43.22
2023-04-02T16:10:33.962Z,5.85
2023-04-02T16:13:25.886Z,4.30
2023-04-02T16:16:07.394Z,19.25
2023-04-02T16:18:59.290Z,29.45
2023-04-02T16:21:33.556Z,28.13
2023-04-02T16:24:02.523Z,75.28
2023-04-02T16:26:46.261Z,68.10
2023-04-02T16:29:53.402Z,88.47
2023-04-02T16:32:43.286Z,45.67
2023-04-02T16:38:12.044Z,166.20
2023-04-02T16:41:07.849Z,52.60
2023-04-02T16:43:55.476Z,33.20
2023-04-02T16:49:15.354Z,78.82
2023-04-02T16:52:21.160Z,74.63
2023-04-02T16:55:17.134Z,41.60
2023-04-02T16:58:13.293Z,87.90
2023-04-02T17:00:57.722Z,17.95
2023-04-02T17:06:53.778Z,40.45
2023-04-02T17:09:48.526Z,19.13
2023-04-02T17:12:28.376Z,19.67
2023-04-02T17:15:14.047Z,13.75
2023-04-02T17:17:51.105Z,7.90
2023-04-02T17:20:25.678Z,9.82
2023-04-02T17:23:08.382Z,10.45
2023-04-02T17:26:03.108Z,12.85
2023-04-02T17:28:40.120Z,8.15
2023-04-02T17:31:36.572Z,8.23
2023-04-02T17:34:24.750Z,6.67
2023-04-02T17:37:14.189Z,5.75
2023-04-02T17:40:36.256Z,7.15
2023-04-02T17:43:55.525Z,8.18
2023-04-02T17:46:46.090Z,6.90
2023-04-02T17:52:56.780Z,8.90
2023-04-02T17:55:43.874Z,9.13
2023-04-02T18:06:06.260Z,8.32
2023-04-02T18:08:49.950Z,9.15
2023-04-02T18:11:57.976Z,11.30
2023-04-02T18:15:11.391Z,8.85
2023-04-02T18:18:12.683Z,6.95
2023-04-02T18:21:15.843Z,7.70
2023-04-02T18:24:16.725Z,8.32
2023-04-02T18:27:29.567Z,7.60
2023-04-02T18:30:06.041Z,5.05
2023-04-02T18:36:04.160Z,6.15
2023-04-02T18:38:41.330Z,8.18
2023-04-02T18:41:35.286Z,6.30
2023-04-02T18:44:30.627Z,6.30
2023-04-02T18:50:46.215Z,7.15
2023-04-02T18:53:25.082Z,7.78
2023-04-02T18:56:27.136Z,7.60
2023-04-02T18:59:14.137Z,6.00
2023-04-02T19:01:58.633Z,6.75
2023-04-02T19:04:46.791Z,7.70
2023-04-02T19:07:36.903Z,6.78
2023-04-02T19:10:46.756Z,7.05
2023-04-02T19:13:28.957Z,8.32
2023-04-02T19:16:04.299Z,8.23
2023-04-02T19:19:18.682Z,6.05
2023-04-02T19:21:53.593Z,6.32
2023-04-02T19:27:53.900Z,5.75
2023-04-02T19:30:42.488Z,5.15
2023-04-02T19:33:52.383Z,5.85
2023-04-02T19:36:44.781Z,5.68
2023-04-02T19:39:53.167Z,6.43
2023-04-02T19:46:15.639Z,9.05
2023-04-02T19:49:29.105Z,7.22
2023-04-02T19:52:12.215Z,4.88
2023-04-02T19:55:27.222Z,7.05
2023-04-02T19:58:04.132Z,7.88
2023-04-02T20:01:30.216Z,9.15
2023-04-02T20:07:03.970Z,7.53
2023-04-02T20:16:43.252Z,8.15
2023-04-02T20:19:28.040Z,6.85
2023-04-02T20:22:55.011Z,7.00
2023-04-02T20:26:25.081Z,7.18
2023-04-02T20:29:00.405Z,5.55
2023-04-02T20:32:11.457Z,6.50
2023-04-02T20:38:13.153Z,6.72
2023-04-02T20:40:42.344Z,6.00
2023-04-02T20:46:16.086Z,7.50
2023-04-02T20:48:49.818Z,5.57
2023-04-02T20:51:43.078Z,7.65
2023-04-02T20:54:33.290Z,6.88
2023-04-02T20:57:02.034Z,7.65
2023-04-02T21:00:12.313Z,7.93
2023-04-02T21:03:00.661Z,5.30
2023-04-02T21:06:23.739Z,7.10
2023-04-02T21:08:34.973Z,10.43
2023-04-02T21:19:22.049Z,7.22
2023-04-02T21:21:06.930Z,7.95
2023-04-02T21:24:08.409Z,6.57
2023-04-02T21:29:32.541Z,7.90
2023-04-02T21:33:24.742Z,6.40
2023-04-02T21:42:30.106Z,6.07
2023-04-02T21:45:48.888Z,4.88
2023-04-02T21:51:49.750Z,6.72
2023-04-02T22:01:31.941Z,6.28
2023-04-02T22:04:16.930Z,5.18
2023-04-02T22:06:54.083Z,7.60
2023-04-02T22:09:42.690Z,8.18
2023-04-02T22:12:11.696Z,8.23
2023-04-02T22:14:55.461Z,5.53
2023-04-02T22:19:07.086Z,5.55
2023-04-02T22:20:39.157Z,6.13
2023-04-02T22:26:23.282Z,4.82
2023-04-02T22:29:19.033Z,5.35
2023-04-02T22:31:53.059Z,4.53
2023-04-02T22:34:26.996Z,5.32
2023-04-02T22:40:05.904Z,5.25
2023-04-02T22:48:36.318Z,6.25
2023-04-02T22:51:47.933Z,5.82
2023-04-02T22:54:45.097Z,4.32
2023-04-02T23:00:50.382Z,4.93
2023-04-02T23:03:28.648Z,3.90
2023-04-02T23:06:05.588Z,3.90
2023-04-02T23:08:43.254Z,6.60
2023-04-02T23:11:18.026Z,6.05
2023-04-02T23:13:53.243Z,5.55
2023-04-02T23:16:45.438Z,6.20
2023-04-02T23:19:13.846Z,6.40
2023-04-02T23:21:59.951Z,5.05
2023-04-02T23:24:31.533Z,6.30
2023-04-02T23:26:59.512Z,7.47
2023-04-02T23:29:30.856Z,4.50
2023-04-02T23:31:58.666Z,4.78
2023-04-02T23:34:29.877Z,4.80
2023-04-02T23:37:01.259Z,5.18
2023-04-02T23:39:35.345Z,5.53
2023-04-02T23:42:06.255Z,4.32
2023-04-02T23:44:36.602Z,3.88
2023-04-02T23:47:05.978Z,4.47
2023-04-02T23:49:34.260Z,3.53
2023-04-02T23:52:01.856Z,2.88
2023-04-02T23:54:30.388Z,4.47
2023-04-02T23:57:04.675Z,3.15
2023-04-02T23:59:37.343Z,3.95
